sensor_id;sensor_type;location;lat;lon;timestamp;P1;P2;P0
60645;PMS5003;46462;32.608;-117.032;2023-06-14T00:01:41;4;3;
60645;PMS5003;46462;32.608;-117.032;2023-06-14T00:04:12;3;3;
60645;PMS5003;46462;32.608;-117.032;2023-06-14T00:06:42;3;3;
60645;PMS5003;46462;32.608;-117.032;2023-06-14T00:09:13;3;3;
60645;PMS5003;46462;32.608;-117.032;2023-06-14T00:11:43;3;2;
60645;PMS5003;46462;32.608;-117.032;2023-06-14T00:14:14;4;4;
60645;PMS5003;46462;32.608;-117.032;2023-06-14T00:16:45;2;2;
60645;PMS5003;46462;32.608;-117.032;2023-06-14T00:19:15;4;4;
60645;PMS5003;46462;32.608;-117.032;2023-06-14T00:21:46;3;3;
60645;PMS5003;46462;32.608;-117.032;2023-06-14T00:24:17;4;4;
60645;PMS5003;46462;32.608;-117.032;2023-06-14T00:26:47;3;3;
60645;PMS5003;46462;32.608;-117.032;2023-06-14T00:29:18;5;4;
60645;PMS5003;46462;32.608;-117.032;2023-06-14T00:31:49;2;2;
60645;PMS5003;46462;32.608;-117.032;2023-06-14T00:34:20;4;3;
60645;PMS5003;46462;32.608;-117.032;2023-06-14T00:36:50;5;4;
60645;PMS5003;46462;32.608;-117.032;2023-06-14T00:39:21;5;5;
60645;PMS5003;46462;32.608;-117.032;2023-06-14T00:41:52;3;3;
60645;PMS5003;46462;32.608;-117.032;2023-06-14T00:44:22;4;4;
60645;PMS5003;46462;32.608;-117.032;2023-06-14T00:46:53;2;2;
60645;PMS5003;46462;32.608;-117.032;2023-06-14T00:49:24;3;3;
60645;PMS5003;46462;32.608;-117.032;2023-06-14T00:51:55;5;4;
60645;PMS5003;46462;32.608;-117.032;2023-06-14T00:54:25;3;3;
60645;PMS5003;46462;32.608;-117.032;2023-06-14T00:56:56;4;3;
60645;PMS5003;46462;32.608;-117.032;2023-06-14T00:59:27;3;3;
60645;PMS5003;46462;32.608;-117.032;2023-06-14T01:01:57;2;2;
60645;PMS5003;46462;32.608;-117.032;2023-06-14T01:04:28;3;3;
60645;PMS5003;46462;32.608;-117.032;2023-06-14T01:07:00;3;3;
60645;PMS5003;46462;32.608;-117.032;2023-06-14T01:09:31;4;4;
60645;PMS5003;46462;32.608;-117.032;2023-06-14T01:12:02;4;4;
60645;PMS5003;46462;32.608;-117.032;2023-06-14T01:14:31;5;4;
60645;PMS5003;46462;32.608;-117.032;2023-06-14T01:17:02;4;4;
60645;PMS5003;46462;32.608;-117.032;2023-06-14T01:19:32;4;3;
60645;PMS5003;46462;32.608;-117.032;2023-06-14T01:22:03;4;3;
60645;PMS5003;46462;32.608;-117.032;2023-06-14T01:24:34;2;2;
60645;PMS5003;46462;32.608;-117.032;2023-06-14T01:27:05;3;3;
60645;PMS5003;46462;32.608;-117.032;2023-06-14T01:29:35;4;3;
60645;PMS5003;46462;32.608;-117.032;2023-06-14T01:32:06;4;4;
60645;PMS5003;46462;32.608;-117.032;2023-06-14T01:34:37;4;4;
60645;PMS5003;46462;32.608;-117.032;2023-06-14T01:37:08;5;5;
60645;PMS5003;46462;32.608;-117.032;2023-06-14T01:39:38;5;5;
60645;PMS5003;46462;32.608;-117.032;2023-06-14T01:42:09;4;3;
60645;PMS5003;46462;32.608;-117.032;2023-06-14T01:44:40;4;3;
60645;PMS5003;46462;32.608;-117.032;2023-06-14T01:47:11;2;2;
60645;PMS5003;46462;32.608;-117.032;2023-06-14T01:49:41;3;3;
60645;PMS5003;46462;32.608;-117.032;2023-06-14T01:52:12;3;3;
60645;PMS5003;46462;32.608;-117.032;2023-06-14T01:54:43;3;3;
60645;PMS5003;46462;32.608;-117.032;2023-06-14T01:57:13;2;2;
60645;PMS5003;46462;32.608;-117.032;2023-06-14T01:59:44;4;3;
60645;PMS5003;46462;32.608;-117.032;2023-06-14T02:02:15;2;2;
60645;PMS5003;46462;32.608;-117.032;2023-06-14T02:04:45;1;1;
60645;PMS5003;46462;32.608;-117.032;2023-06-14T02:07:16;3;3;
60645;PMS5003;46462;32.608;-117.032;2023-06-14T02:09:47;2;2;
60645;PMS5003;46462;32.608;-117.032;2023-06-14T02:12:17;3;3;
60645;PMS5003;46462;32.608;-117.032;2023-06-14T02:14:48;3;3;
60645;PMS5003;46462;32.608;-117.032;2023-06-14T02:17:19;2;2;
60645;PMS5003;46462;32.608;-117.032;2023-06-14T02:19:50;3;3;
60645;PMS5003;46462;32.608;-117.032;2023-06-14T02:22:21;3;3;
60645;PMS5003;46462;32.608;-117.032;2023-06-14T02:24:51;3;3;
60645;PMS5003;46462;32.608;-117.032;2023-06-14T02:27:22;3;3;
60645;PMS5003;46462;32.608;-117.032;2023-06-14T02:29:52;4;3;
60645;PMS5003;46462;32.608;-117.032;2023-06-14T02:32:23;3;3;
60645;PMS5003;46462;32.608;-117.032;2023-06-14T02:34:54;3;2;
60645;PMS5003;46462;32.608;-117.032;2023-06-14T02:37:25;4;4;
60645;PMS5003;46462;32.608;-117.032;2023-06-14T02:39:55;4;4;
60645;PMS5003;46462;32.608;-117.032;2023-06-14T02:42:26;3;3;
60645;PMS5003;46462;32.608;-117.032;2023-06-14T02:44:57;4;4;
60645;PMS5003;46462;32.608;-117.032;2023-06-14T02:47:28;4;4;
60645;PMS5003;46462;32.608;-117.032;2023-06-14T02:49:58;4;4;
60645;PMS5003;46462;32.608;-117.032;2023-06-14T02:52:29;3;3;
60645;PMS5003;46462;32.608;-117.032;2023-06-14T02:55:00;3;3;
60645;PMS5003;46462;32.608;-117.032;2023-06-14T02:57:30;4;4;
60645;PMS5003;46462;32.608;-117.032;2023-06-14T03:00:01;4;4;
60645;PMS5003;46462;32.608;-117.032;2023-06-14T03:02:32;2;2;
60645;PMS5003;46462;32.608;-117.032;2023-06-14T03:05:06;3;3;
60645;PMS5003;46462;32.608;-117.032;2023-06-14T03:07:36;5;5;
60645;PMS5003;46462;32.608;-117.032;2023-06-14T03:10:06;3;3;
60645;PMS5003;46462;32.608;-117.032;2023-06-14T03:12:36;3;3;
60645;PMS5003;46462;32.608;-117.032;2023-06-14T03:15:07;3;3;
60645;PMS5003;46462;32.608;-117.032;2023-06-14T03:17:37;3;3;
60645;PMS5003;46462;32.608;-117.032;2023-06-14T03:20:08;3;3;
60645;PMS5003;46462;32.608;-117.032;2023-06-14T03:22:38;3;3;
60645;PMS5003;46462;32.608;-117.032;2023-06-14T03:25:09;3;3;
60645;PMS5003;46462;32.608;-117.032;2023-06-14T03:27:40;3;3;
60645;PMS5003;46462;32.608;-117.032;2023-06-14T03:30:11;4;4;
60645;PMS5003;46462;32.608;-117.032;2023-06-14T03:32:41;3;3;
60645;PMS5003;46462;32.608;-117.032;2023-06-14T03:35:12;1;1;
60645;PMS5003;46462;32.608;-117.032;2023-06-14T03:37:43;2;2;
60645;PMS5003;46462;32.608;-117.032;2023-06-14T03:40:15;4;4;
60645;PMS5003;46462;32.608;-117.032;2023-06-14T03:42:44;4;4;
60645;PMS5003;46462;32.608;-117.032;2023-06-14T03:45:15;4;4;
60645;PMS5003;46462;32.608;-117.032;2023-06-14T03:47:46;4;3;
60645;PMS5003;46462;32.608;-117.032;2023-06-14T03:50:17;5;4;
60645;PMS5003;46462;32.608;-117.032;2023-06-14T03:52:47;3;3;
60645;PMS5003;46462;32.608;-117.032;2023-06-14T03:55:18;2;2;
60645;PMS5003;46462;32.608;-117.032;2023-06-14T03:57:49;4;4;
60645;PMS5003;46462;32.608;-117.032;2023-06-14T04:00:19;4;3;
60645;PMS5003;46462;32.608;-117.032;2023-06-14T04:02:50;4;4;
60645;PMS5003;46462;32.608;-117.032;2023-06-14T04:05:21;2;2;
60645;PMS5003;46462;32.608;-117.032;2023-06-14T04:07:51;2;2;
60645;PMS5003;46462;32.608;-117.032;2023-06-14T04:10:22;2;2;
60645;PMS5003;46462;32.608;-117.032;2023-06-14T04:12:53;3;2;
60645;PMS5003;46462;32.608;-117.032;2023-06-14T04:15:24;4;4;
60645;PMS5003;46462;32.608;-117.032;2023-06-14T04:17:54;3;3;
60645;PMS5003;46462;32.608;-117.032;2023-06-14T04:20:25;4;4;
60645;PMS5003;46462;32.608;-117.032;2023-06-14T04:22:56;2;2;
60645;PMS5003;46462;32.608;-117.032;2023-06-14T04:25:27;3;3;
60645;PMS5003;46462;32.608;-117.032;2023-06-14T04:27:57;2;2;
60645;PMS5003;46462;32.608;-117.032;2023-06-14T04:30:28;2;2;
60645;PMS5003;46462;32.608;-117.032;2023-06-14T04:32:58;3;2;
60645;PMS5003;46462;32.608;-117.032;2023-06-14T04:35:29;3;3;
60645;PMS5003;46462;32.608;-117.032;2023-06-14T04:38:00;3;3;
60645;PMS5003;46462;32.608;-117.032;2023-06-14T04:40:32;3;3;
60645;PMS5003;46462;32.608;-117.032;2023-06-14T04:43:01;2;2;
60645;PMS5003;46462;32.608;-117.032;2023-06-14T04:45:32;3;3;
60645;PMS5003;46462;32.608;-117.032;2023-06-14T04:48:03;3;3;
60645;PMS5003;46462;32.608;-117.032;2023-06-14T04:50:33;4;4;
60645;PMS5003;46462;32.608;-117.032;2023-06-14T04:53:04;2;1;
60645;PMS5003;46462;32.608;-117.032;2023-06-14T04:55:35;3;3;
60645;PMS5003;46462;32.608;-117.032;2023-06-14T04:58:06;2;2;
60645;PMS5003;46462;32.608;-117.032;2023-06-14T05:00:37;1;1;
60645;PMS5003;46462;32.608;-117.032;2023-06-14T05:03:07;3;2;
60645;PMS5003;46462;32.608;-117.032;2023-06-14T05:05:39;4;4;
60645;PMS5003;46462;32.608;-117.032;2023-06-14T05:08:09;3;3;
60645;PMS5003;46462;32.608;-117.032;2023-06-14T05:10:39;3;3;
60645;PMS5003;46462;32.608;-117.032;2023-06-14T05:13:10;4;4;
60645;PMS5003;46462;32.608;-117.032;2023-06-14T05:15:41;3;3;
60645;PMS5003;46462;32.608;-117.032;2023-06-14T05:18:12;3;3;
60645;PMS5003;46462;32.608;-117.032;2023-06-14T05:20:42;3;3;
60645;PMS5003;46462;32.608;-117.032;2023-06-14T05:23:13;3;3;
60645;PMS5003;46462;32.608;-117.032;2023-06-14T05:25:44;4;4;
60645;PMS5003;46462;32.608;-117.032;2023-06-14T05:28:15;2;2;
60645;PMS5003;46462;32.608;-117.032;2023-06-14T05:30:45;3;3;
60645;PMS5003;46462;32.608;-117.032;2023-06-14T05:33:16;3;3;
60645;PMS5003;46462;32.608;-117.032;2023-06-14T05:35:47;2;2;
60645;PMS5003;46462;32.608;-117.032;2023-06-14T05:38:18;4;4;
60645;PMS5003;46462;32.608;-117.032;2023-06-14T05:40:48;1;1;
60645;PMS5003;46462;32.608;-117.032;2023-06-14T05:43:19;3;3;
60645;PMS5003;46462;32.608;-117.032;2023-06-14T05:45:50;3;3;
60645;PMS5003;46462;32.608;-117.032;2023-06-14T05:48:21;3;3;
60645;PMS5003;46462;32.608;-117.032;2023-06-14T05:50:51;4;4;
60645;PMS5003;46462;32.608;-117.032;2023-06-14T05:53:22;3;3;
60645;PMS5003;46462;32.608;-117.032;2023-06-14T05:55:53;3;3;
60645;PMS5003;46462;32.608;-117.032;2023-06-14T05:58:23;2;2;
60645;PMS5003;46462;32.608;-117.032;2023-06-14T06:00:54;3;3;
60645;PMS5003;46462;32.608;-117.032;2023-06-14T06:03:25;2;2;
60645;PMS5003;46462;32.608;-117.032;2023-06-14T06:05:56;3;3;
60645;PMS5003;46462;32.608;-117.032;2023-06-14T06:08:26;2;2;
60645;PMS5003;46462;32.608;-117.032;2023-06-14T06:10:57;2;2;
60645;PMS5003;46462;32.608;-117.032;2023-06-14T06:13:28;4;4;
60645;PMS5003;46462;32.608;-117.032;2023-06-14T06:15:59;1;1;
60645;PMS5003;46462;32.608;-117.032;2023-06-14T06:18:29;3;3;
60645;PMS5003;46462;32.608;-117.032;2023-06-14T06:21:00;2;2;
60645;PMS5003;46462;32.608;-117.032;2023-06-14T06:23:31;3;3;
60645;PMS5003;46462;32.608;-117.032;2023-06-14T06:26:02;3;3;
60645;PMS5003;46462;32.608;-117.032;2023-06-14T06:28:32;2;2;
60645;PMS5003;46462;32.608;-117.032;2023-06-14T06:31:03;2;2;
60645;PMS5003;46462;32.608;-117.032;2023-06-14T06:33:34;3;3;
60645;PMS5003;46462;32.608;-117.032;2023-06-14T06:36:05;3;3;
60645;PMS5003;46462;32.608;-117.032;2023-06-14T06:38:35;3;3;
60645;PMS5003;46462;32.608;-117.032;2023-06-14T06:41:06;4;4;
60645;PMS5003;46462;32.608;-117.032;2023-06-14T06:43:37;3;3;
60645;PMS5003;46462;32.608;-117.032;2023-06-14T06:46:07;4;4;
60645;PMS5003;46462;32.608;-117.032;2023-06-14T06:48:38;3;3;
60645;PMS5003;46462;32.608;-117.032;2023-06-14T06:51:09;2;2;
60645;PMS5003;46462;32.608;-117.032;2023-06-14T06:53:41;2;1;
60645;PMS5003;46462;32.608;-117.032;2023-06-14T06:56:10;2;2;
60645;PMS5003;46462;32.608;-117.032;2023-06-14T06:58:41;3;3;
60645;PMS5003;46462;32.608;-117.032;2023-06-14T07:01:12;3;3;
60645;PMS5003;46462;32.608;-117.032;2023-06-14T07:03:43;3;3;
60645;PMS5003;46462;32.608;-117.032;2023-06-14T07:06:16;3;3;
60645;PMS5003;46462;32.608;-117.032;2023-06-14T07:08:44;3;3;
60645;PMS5003;46462;32.608;-117.032;2023-06-14T07:11:15;2;2;
60645;PMS5003;46462;32.608;-117.032;2023-06-14T07:13:45;4;4;
60645;PMS5003;46462;32.608;-117.032;2023-06-14T07:16:16;3;3;
60645;PMS5003;46462;32.608;-117.032;2023-06-14T07:18:47;4;3;
60645;PMS5003;46462;32.608;-117.032;2023-06-14T07:21:18;4;4;
60645;PMS5003;46462;32.608;-117.032;2023-06-14T07:23:48;2;2;
60645;PMS5003;46462;32.608;-117.032;2023-06-14T07:26:19;2;2;
60645;PMS5003;46462;32.608;-117.032;2023-06-14T07:28:50;2;2;
60645;PMS5003;46462;32.608;-117.032;2023-06-14T07:31:21;3;3;
60645;PMS5003;46462;32.608;-117.032;2023-06-14T07:33:51;5;3;
60645;PMS5003;46462;32.608;-117.032;2023-06-14T07:36:22;3;2;
60645;PMS5003;46462;32.608;-117.032;2023-06-14T07:38:53;3;3;
60645;PMS5003;46462;32.608;-117.032;2023-06-14T07:41:24;4;4;
60645;PMS5003;46462;32.608;-117.032;2023-06-14T07:43:54;3;3;
60645;PMS5003;46462;32.608;-117.032;2023-06-14T07:46:25;3;3;
60645;PMS5003;46462;32.608;-117.032;2023-06-14T07:48:56;3;3;
60645;PMS5003;46462;32.608;-117.032;2023-06-14T07:51:27;1;1;
60645;PMS5003;46462;32.608;-117.032;2023-06-14T07:53:59;4;4;
60645;PMS5003;46462;32.608;-117.032;2023-06-14T07:56:28;4;3;
60645;PMS5003;46462;32.608;-117.032;2023-06-14T07:58:59;2;2;
60645;PMS5003;46462;32.608;-117.032;2023-06-14T08:01:30;4;4;
60645;PMS5003;46462;32.608;-117.032;2023-06-14T08:04:00;3;3;
60645;PMS5003;46462;32.608;-117.032;2023-06-14T08:06:31;2;2;
60645;PMS5003;46462;32.608;-117.032;2023-06-14T08:09:02;2;2;
60645;PMS5003;46462;32.608;-117.032;2023-06-14T08:11:32;2;2;
60645;PMS5003;46462;32.608;-117.032;2023-06-14T08:14:03;3;3;
60645;PMS5003;46462;32.608;-117.032;2023-06-14T08:16:34;2;2;
60645;PMS5003;46462;32.608;-117.032;2023-06-14T08:19:05;2;2;
60645;PMS5003;46462;32.608;-117.032;2023-06-14T08:21:35;3;3;
60645;PMS5003;46462;32.608;-117.032;2023-06-14T08:24:06;3;2;
60645;PMS5003;46462;32.608;-117.032;2023-06-14T08:26:37;3;3;
60645;PMS5003;46462;32.608;-117.032;2023-06-14T08:29:08;2;2;
60645;PMS5003;46462;32.608;-117.032;2023-06-14T08:31:39;3;3;
60645;PMS5003;46462;32.608;-117.032;2023-06-14T08:34:09;2;1;
60645;PMS5003;46462;32.608;-117.032;2023-06-14T08:36:40;3;3;
60645;PMS5003;46462;32.608;-117.032;2023-06-14T08:39:10;1;1;
60645;PMS5003;46462;32.608;-117.032;2023-06-14T08:41:41;3;3;
60645;PMS5003;46462;32.608;-117.032;2023-06-14T08:44:12;2;2;
60645;PMS5003;46462;32.608;-117.032;2023-06-14T08:46:43;3;3;
60645;PMS5003;46462;32.608;-117.032;2023-06-14T08:49:14;3;3;
60645;PMS5003;46462;32.608;-117.032;2023-06-14T08:51:44;3;3;
60645;PMS5003;46462;32.608;-117.032;2023-06-14T08:54:15;2;2;
60645;PMS5003;46462;32.608;-117.032;2023-06-14T08:56:46;3;3;
60645;PMS5003;46462;32.608;-117.032;2023-06-14T08:59:16;3;3;
60645;PMS5003;46462;32.608;-117.032;2023-06-14T09:01:47;2;2;
60645;PMS5003;46462;32.608;-117.032;2023-06-14T09:04:18;3;3;
60645;PMS5003;46462;32.608;-117.032;2023-06-14T09:06:49;1;1;
60645;PMS5003;46462;32.608;-117.032;2023-06-14T09:09:20;3;3;
60645;PMS5003;46462;32.608;-117.032;2023-06-14T09:11:50;1;1;
60645;PMS5003;46462;32.608;-117.032;2023-06-14T09:14:23;2;2;
60645;PMS5003;46462;32.608;-117.032;2023-06-14T09:16:52;2;2;
60645;PMS5003;46462;32.608;-117.032;2023-06-14T09:19:23;2;2;
60645;PMS5003;46462;32.608;-117.032;2023-06-14T09:21:53;3;3;
60645;PMS5003;46462;32.608;-117.032;2023-06-14T09:24:24;3;3;
60645;PMS5003;46462;32.608;-117.032;2023-06-14T09:26:55;3;3;
60645;PMS5003;46462;32.608;-117.032;2023-06-14T09:29:25;3;3;
60645;PMS5003;46462;32.608;-117.032;2023-06-14T09:31:56;2;2;
60645;PMS5003;46462;32.608;-117.032;2023-06-14T09:34:27;3;3;
60645;PMS5003;46462;32.608;-117.032;2023-06-14T09:36:57;3;3;
60645;PMS5003;46462;32.608;-117.032;2023-06-14T09:39:28;3;3;
60645;PMS5003;46462;32.608;-117.032;2023-06-14T09:41:59;3;3;
60645;PMS5003;46462;32.608;-117.032;2023-06-14T09:44:30;2;2;
60645;PMS5003;46462;32.608;-117.032;2023-06-14T09:47:01;3;3;
60645;PMS5003;46462;32.608;-117.032;2023-06-14T09:49:31;4;4;
60645;PMS5003;46462;32.608;-117.032;2023-06-14T09:52:02;3;3;
60645;PMS5003;46462;32.608;-117.032;2023-06-14T09:54:33;4;4;
60645;PMS5003;46462;32.608;-117.032;2023-06-14T09:57:04;3;3;
60645;PMS5003;46462;32.608;-117.032;2023-06-14T09:59:34;3;3;
60645;PMS5003;46462;32.608;-117.032;2023-06-14T10:02:07;2;2;
60645;PMS5003;46462;32.608;-117.032;2023-06-14T10:04:36;5;5;
60645;PMS5003;46462;32.608;-117.032;2023-06-14T10:07:06;3;3;
60645;PMS5003;46462;32.608;-117.032;2023-06-14T10:09:37;4;4;
60645;PMS5003;46462;32.608;-117.032;2023-06-14T10:12:08;4;4;
60645;PMS5003;46462;32.608;-117.032;2023-06-14T10:14:39;3;3;
60645;PMS5003;46462;32.608;-117.032;2023-06-14T10:17:10;3;3;
60645;PMS5003;46462;32.608;-117.032;2023-06-14T10:19:42;2;2;
60645;PMS5003;46462;32.608;-117.032;2023-06-14T10:22:12;3;3;
60645;PMS5003;46462;32.608;-117.032;2023-06-14T10:24:42;4;4;
60645;PMS5003;46462;32.608;-117.032;2023-06-14T10:27:13;4;4;
60645;PMS5003;46462;32.608;-117.032;2023-06-14T10:32:14;4;4;
60645;PMS5003;46462;32.608;-117.032;2023-06-14T10:34:45;3;3;
60645;PMS5003;46462;32.608;-117.032;2023-06-14T10:37:15;4;4;
60645;PMS5003;46462;32.608;-117.032;2023-06-14T10:39:46;4;4;
60645;PMS5003;46462;32.608;-117.032;2023-06-14T10:42:17;4;4;
60645;PMS5003;46462;32.608;-117.032;2023-06-14T10:44:49;3;3;
60645;PMS5003;46462;32.608;-117.032;2023-06-14T10:49:50;4;4;
60645;PMS5003;46462;32.608;-117.032;2023-06-14T10:52:22;3;3;
60645;PMS5003;46462;32.608;-117.032;2023-06-14T10:57:21;4;4;
60645;PMS5003;46462;32.608;-117.032;2023-06-14T10:59:52;3;3;
60645;PMS5003;46462;32.608;-117.032;2023-06-14T11:04:53;2;2;
60645;PMS5003;46462;32.608;-117.032;2023-06-14T11:07:29;3;3;
60645;PMS5003;46462;32.608;-117.032;2023-06-14T11:10:01;3;3;
60645;PMS5003;46462;32.608;-117.032;2023-06-14T11:12:26;4;4;
60645;PMS5003;46462;32.608;-117.032;2023-06-14T11:14:56;3;3;
60645;PMS5003;46462;32.608;-117.032;2023-06-14T11:17:27;2;2;
60645;PMS5003;46462;32.608;-117.032;2023-06-14T11:22:29;4;3;
60645;PMS5003;46462;32.608;-117.032;2023-06-14T11:25:01;4;4;
60645;PMS5003;46462;32.608;-117.032;2023-06-14T11:27:32;3;3;
60645;PMS5003;46462;32.608;-117.032;2023-06-14T11:30:01;4;4;
60645;PMS5003;46462;32.608;-117.032;2023-06-14T11:32:32;4;4;
60645;PMS5003;46462;32.608;-117.032;2023-06-14T11:35:06;4;4;
60645;PMS5003;46462;32.608;-117.032;2023-06-14T11:37:36;4;3;
60645;PMS5003;46462;32.608;-117.032;2023-06-14T11:40:07;4;4;
60645;PMS5003;46462;32.608;-117.032;2023-06-14T11:42:37;2;2;
60645;PMS5003;46462;32.608;-117.032;2023-06-14T11:45:07;4;4;
60645;PMS5003;46462;32.608;-117.032;2023-06-14T11:47:38;3;3;
60645;PMS5003;46462;32.608;-117.032;2023-06-14T11:50:09;4;3;
60645;PMS5003;46462;32.608;-117.032;2023-06-14T11:52:39;2;2;
60645;PMS5003;46462;32.608;-117.032;2023-06-14T11:55:09;4;4;
60645;PMS5003;46462;32.608;-117.032;2023-06-14T11:57:40;4;4;
60645;PMS5003;46462;32.608;-117.032;2023-06-14T12:00:11;3;3;
60645;PMS5003;46462;32.608;-117.032;2023-06-14T12:02:42;4;4;
60645;PMS5003;46462;32.608;-117.032;2023-06-14T12:05:12;2;2;
60645;PMS5003;46462;32.608;-117.032;2023-06-14T12:07:43;4;4;
60645;PMS5003;46462;32.608;-117.032;2023-06-14T12:10:14;5;5;
60645;PMS5003;46462;32.608;-117.032;2023-06-14T12:12:45;4;4;
60645;PMS5003;46462;32.608;-117.032;2023-06-14T12:15:15;5;4;
60645;PMS5003;46462;32.608;-117.032;2023-06-14T12:17:46;4;4;
60645;PMS5003;46462;32.608;-117.032;2023-06-14T12:20:17;4;4;
60645;PMS5003;46462;32.608;-117.032;2023-06-14T12:22:50;4;4;
60645;PMS5003;46462;32.608;-117.032;2023-06-14T12:27:49;4;4;
60645;PMS5003;46462;32.608;-117.032;2023-06-14T12:30:20;2;2;
60645;PMS5003;46462;32.608;-117.032;2023-06-14T12:32:51;5;5;
60645;PMS5003;46462;32.608;-117.032;2023-06-14T12:35:21;4;4;
60645;PMS5003;46462;32.608;-117.032;2023-06-14T12:37:52;4;4;
60645;PMS5003;46462;32.608;-117.032;2023-06-14T12:40:23;6;5;
60645;PMS5003;46462;32.608;-117.032;2023-06-14T12:42:54;4;3;
60645;PMS5003;46462;32.608;-117.032;2023-06-14T12:45:24;2;2;
60645;PMS5003;46462;32.608;-117.032;2023-06-14T12:47:55;4;4;
60645;PMS5003;46462;32.608;-117.032;2023-06-14T12:50:26;6;6;
60645;PMS5003;46462;32.608;-117.032;2023-06-14T12:52:57;3;3;
60645;PMS5003;46462;32.608;-117.032;2023-06-14T12:55:27;4;4;
60645;PMS5003;46462;32.608;-117.032;2023-06-14T12:57:58;5;5;
60645;PMS5003;46462;32.608;-117.032;2023-06-14T13:00:29;4;3;
60645;PMS5003;46462;32.608;-117.032;2023-06-14T13:03:00;3;3;
60645;PMS5003;46462;32.608;-117.032;2023-06-14T13:05:30;4;4;
60645;PMS5003;46462;32.608;-117.032;2023-06-14T13:08:01;4;4;
60645;PMS5003;46462;32.608;-117.032;2023-06-14T13:10:32;3;3;
60645;PMS5003;46462;32.608;-117.032;2023-06-14T13:13:03;4;4;
60645;PMS5003;46462;32.608;-117.032;2023-06-14T13:15:33;2;2;
60645;PMS5003;46462;32.608;-117.032;2023-06-14T13:18:04;4;4;
60645;PMS5003;46462;32.608;-117.032;2023-06-14T13:20:35;4;4;
60645;PMS5003;46462;32.608;-117.032;2023-06-14T13:23:06;4;4;
60645;PMS5003;46462;32.608;-117.032;2023-06-14T13:25:37;4;4;
60645;PMS5003;46462;32.608;-117.032;2023-06-14T13:28:07;4;4;
60645;PMS5003;46462;32.608;-117.032;2023-06-14T13:30:38;4;4;
60645;PMS5003;46462;32.608;-117.032;2023-06-14T13:33:09;4;3;
60645;PMS5003;46462;32.608;-117.032;2023-06-14T13:35:39;4;4;
60645;PMS5003;46462;32.608;-117.032;2023-06-14T13:38:10;4;3;
60645;PMS5003;46462;32.608;-117.032;2023-06-14T13:40:41;2;2;
60645;PMS5003;46462;32.608;-117.032;2023-06-14T13:43:12;4;4;
60645;PMS5003;46462;32.608;-117.032;2023-06-14T13:45:42;3;3;
60645;PMS5003;46462;32.608;-117.032;2023-06-14T13:48:13;4;4;
60645;PMS5003;46462;32.608;-117.032;2023-06-14T13:50:44;3;3;
60645;PMS5003;46462;32.608;-117.032;2023-06-14T13:53:14;5;5;
60645;PMS5003;46462;32.608;-117.032;2023-06-14T13:55:45;2;2;
60645;PMS5003;46462;32.608;-117.032;2023-06-14T13:58:16;5;4;
60645;PMS5003;46462;32.608;-117.032;2023-06-14T14:00:47;3;3;
60645;PMS5003;46462;32.608;-117.032;2023-06-14T14:03:18;4;4;
60645;PMS5003;46462;32.608;-117.032;2023-06-14T14:05:48;3;3;
60645;PMS5003;46462;32.608;-117.032;2023-06-14T14:08:19;5;4;
60645;PMS5003;46462;32.608;-117.032;2023-06-14T14:10:50;4;4;
60645;PMS5003;46462;32.608;-117.032;2023-06-14T14:13:21;4;4;
60645;PMS5003;46462;32.608;-117.032;2023-06-14T14:15:51;4;4;
60645;PMS5003;46462;32.608;-117.032;2023-06-14T14:18:22;4;4;
60645;PMS5003;46462;32.608;-117.032;2023-06-14T14:20:53;4;4;
60645;PMS5003;46462;32.608;-117.032;2023-06-14T14:23:23;3;3;
60645;PMS5003;46462;32.608;-117.032;2023-06-14T14:25:54;4;4;
60645;PMS5003;46462;32.608;-117.032;2023-06-14T14:28:25;4;4;
60645;PMS5003;46462;32.608;-117.032;2023-06-14T14:30:56;4;4;
60645;PMS5003;46462;32.608;-117.032;2023-06-14T14:33:26;4;4;
60645;PMS5003;46462;32.608;-117.032;2023-06-14T14:35:57;3;3;
60645;PMS5003;46462;32.608;-117.032;2023-06-14T14:38:28;4;3;
60645;PMS5003;46462;32.608;-117.032;2023-06-14T14:40:59;6;6;
60645;PMS5003;46462;32.608;-117.032;2023-06-14T14:43:29;4;4;
60645;PMS5003;46462;32.608;-117.032;2023-06-14T14:46:00;4;4;
60645;PMS5003;46462;32.608;-117.032;2023-06-14T14:48:31;5;4;
60645;PMS5003;46462;32.608;-117.032;2023-06-14T14:51:02;4;4;
60645;PMS5003;46462;32.608;-117.032;2023-06-14T14:53:32;3;3;
60645;PMS5003;46462;32.608;-117.032;2023-06-14T14:56:03;4;4;
60645;PMS5003;46462;32.608;-117.032;2023-06-14T14:58:34;3;3;
60645;PMS5003;46462;32.608;-117.032;2023-06-14T15:01:05;4;4;
60645;PMS5003;46462;32.608;-117.032;2023-06-14T15:03:35;4;4;
60645;PMS5003;46462;32.608;-117.032;2023-06-14T15:06:06;3;3;
60645;PMS5003;46462;32.608;-117.032;2023-06-14T15:08:37;4;3;
60645;PMS5003;46462;32.608;-117.032;2023-06-14T15:11:08;3;3;
60645;PMS5003;46462;32.608;-117.032;2023-06-14T15:13:38;4;4;
60645;PMS5003;46462;32.608;-117.032;2023-06-14T15:16:09;6;6;
60645;PMS5003;46462;32.608;-117.032;2023-06-14T15:18:40;5;5;
60645;PMS5003;46462;32.608;-117.032;2023-06-14T15:21:11;7;7;
60645;PMS5003;46462;32.608;-117.032;2023-06-14T15:23:41;8;7;
60645;PMS5003;46462;32.608;-117.032;2023-06-14T15:26:12;10;9;
60645;PMS5003;46462;32.608;-117.032;2023-06-14T15:28:42;10;10;
60645;PMS5003;46462;32.608;-117.032;2023-06-14T15:31:13;9;9;
60645;PMS5003;46462;32.608;-117.032;2023-06-14T15:33:44;10;10;
60645;PMS5003;46462;32.608;-117.032;2023-06-14T15:36:15;10;10;
60645;PMS5003;46462;32.608;-117.032;2023-06-14T15:38:45;10;9;
60645;PMS5003;46462;32.608;-117.032;2023-06-14T15:41:16;9;9;
60645;PMS5003;46462;32.608;-117.032;2023-06-14T15:43:47;10;10;
60645;PMS5003;46462;32.608;-117.032;2023-06-14T15:46:18;12;11;
60645;PMS5003;46462;32.608;-117.032;2023-06-14T15:48:48;10;10;
60645;PMS5003;46462;32.608;-117.032;2023-06-14T15:51:19;13;11;
60645;PMS5003;46462;32.608;-117.032;2023-06-14T15:53:49;10;10;
60645;PMS5003;46462;32.608;-117.032;2023-06-14T15:56:20;8;8;
60645;PMS5003;46462;32.608;-117.032;2023-06-14T15:58:50;9;8;
60645;PMS5003;46462;32.608;-117.032;2023-06-14T16:01:21;9;8;
60645;PMS5003;46462;32.608;-117.032;2023-06-14T16:03:52;10;10;
60645;PMS5003;46462;32.608;-117.032;2023-06-14T16:06:23;6;6;
60645;PMS5003;46462;32.608;-117.032;2023-06-14T16:08:54;8;8;
60645;PMS5003;46462;32.608;-117.032;2023-06-14T16:11:24;6;6;
60645;PMS5003;46462;32.608;-117.032;2023-06-14T16:13:55;8;8;
60645;PMS5003;46462;32.608;-117.032;2023-06-14T16:16:26;6;6;
60645;PMS5003;46462;32.608;-117.032;2023-06-14T16:18:56;6;6;
60645;PMS5003;46462;32.608;-117.032;2023-06-14T16:21:27;6;6;
60645;PMS5003;46462;32.608;-117.032;2023-06-14T16:23:58;6;6;
60645;PMS5003;46462;32.608;-117.032;2023-06-14T16:26:29;7;7;
60645;PMS5003;46462;32.608;-117.032;2023-06-14T16:28:59;5;5;
60645;PMS5003;46462;32.608;-117.032;2023-06-14T16:31:30;7;6;
60645;PMS5003;46462;32.608;-117.032;2023-06-14T16:34:01;5;5;
60645;PMS5003;46462;32.608;-117.032;2023-06-14T16:36:32;6;6;
60645;PMS5003;46462;32.608;-117.032;2023-06-14T16:39:02;4;4;